sensor_id;sensor_type;location;lat;lon;timestamp;P1;durP1;ratioP1;P2;durP2;ratioP2
46006;SDS011;31738;50.188;8.524;2022-11-20T00:01:36;41.60;;;17.67;;
46006;SDS011;31738;50.188;8.524;2022-11-20T00:04:08;43.25;;;18.60;;
46006;SDS011;31738;50.188;8.524;2022-11-20T00:06:37;48.55;;;20.73;;
46006;SDS011;31738;50.188;8.524;2022-11-20T00:09:09;43.50;;;20.88;;
46006;SDS011;31738;50.188;8.524;2022-11-20T00:11:35;46.88;;;19.40;;
46006;SDS011;31738;50.188;8.524;2022-11-20T00:14:01;45.70;;;18.85;;
46006;SDS011;31738;50.188;8.524;2022-11-20T00:16:31;49.97;;;20.98;;
46006;SDS011;31738;50.188;8.524;2022-11-20T00:18:57;48.60;;;19.60;;
46006;SDS011;31738;50.188;8.524;2022-11-20T00:21:26;57.30;;;22.75;;
46006;SDS011;31738;50.188;8.524;2022-11-20T00:23:56;53.05;;;21.45;;
46006;SDS011;31738;50.188;8.524;2022-11-20T00:26:28;49.95;;;20.15;;
46006;SDS011;31738;50.188;8.524;2022-11-20T00:28:57;52.00;;;19.83;;
46006;SDS011;31738;50.188;8.524;2022-11-20T00:31:34;49.47;;;19.92;;
46006;SDS011;31738;50.188;8.524;2022-11-20T00:34:11;46.67;;;19.48;;
46006;SDS011;31738;50.188;8.524;2022-11-20T00:36:39;53.80;;;22.33;;
46006;SDS011;31738;50.188;8.524;2022-11-20T00:39:21;51.70;;;20.42;;
46006;SDS011;31738;50.188;8.524;2022-11-20T00:41:54;50.63;;;20.90;;
46006;SDS011;31738;50.188;8.524;2022-11-20T00:44:23;49.58;;;20.63;;
46006;SDS011;31738;50.188;8.524;2022-11-20T00:46:56;50.88;;;21.02;;
46006;SDS011;31738;50.188;8.524;2022-11-20T00:49:25;54.08;;;20.88;;
46006;SDS011;31738;50.188;8.524;2022-11-20T00:51:56;52.85;;;21.63;;
46006;SDS011;31738;50.188;8.524;2022-11-20T00:54:24;51.28;;;21.80;;
46006;SDS011;31738;50.188;8.524;2022-11-20T00:56:52;53.72;;;21.27;;
46006;SDS011;31738;50.188;8.524;2022-11-20T00:59:18;54.05;;;22.13;;
46006;SDS011;31738;50.188;8.524;2022-11-20T01:01:44;57.65;;;22.90;;
46006;SDS011;31738;50.188;8.524;2022-11-20T01:04:12;52.17;;;21.85;;
46006;SDS011;31738;50.188;8.524;2022-11-20T01:06:41;50.00;;;21.88;;
46006;SDS011;31738;50.188;8.524;2022-11-20T01:09:10;50.03;;;21.30;;
46006;SDS011;31738;50.188;8.524;2022-11-20T01:11:41;51.40;;;21.05;;
46006;SDS011;31738;50.188;8.524;2022-11-20T01:14:16;51.00;;;20.67;;
46006;SDS011;31738;50.188;8.524;2022-11-20T01:16:44;51.83;;;21.42;;
46006;SDS011;31738;50.188;8.524;2022-11-20T01:19:19;52.47;;;21.73;;
46006;SDS011;31738;50.188;8.524;2022-11-20T01:21:52;50.05;;;21.15;;
46006;SDS011;31738;50.188;8.524;2022-11-20T01:24:25;45.75;;;20.23;;
46006;SDS011;31738;50.188;8.524;2022-11-20T01:26:51;47.80;;;21.17;;
46006;SDS011;31738;50.188;8.524;2022-11-20T01:29:21;54.33;;;21.65;;
46006;SDS011;31738;50.188;8.524;2022-11-20T01:31:48;50.65;;;21.13;;
46006;SDS011;31738;50.188;8.524;2022-11-20T01:34:19;51.92;;;21.27;;
46006;SDS011;31738;50.188;8.524;2022-11-20T01:36:55;54.90;;;21.35;;
46006;SDS011;31738;50.188;8.524;2022-11-20T01:39:21;55.42;;;21.55;;
46006;SDS011;31738;50.188;8.524;2022-11-20T01:41:49;56.10;;;22.50;;
46006;SDS011;31738;50.188;8.524;2022-11-20T01:48:00;57.50;;;21.75;;
46006;SDS011;31738;50.188;8.524;2022-11-20T01:50:27;56.92;;;23.58;;
46006;SDS011;31738;50.188;8.524;2022-11-20T01:53:05;56.55;;;23.23;;
46006;SDS011;31738;50.188;8.524;2022-11-20T01:55:49;57.95;;;23.33;;
46006;SDS011;31738;50.188;8.524;2022-11-20T01:58:21;54.65;;;22.00;;
46006;SDS011;31738;50.188;8.524;2022-11-20T02:00:53;54.85;;;22.13;;
46006;SDS011;31738;50.188;8.524;2022-11-20T02:03:21;58.95;;;23.83;;
46006;SDS011;31738;50.188;8.524;2022-11-20T02:08:27;59.47;;;24.38;;
46006;SDS011;31738;50.188;8.524;2022-11-20T02:10:56;55.70;;;22.90;;
46006;SDS011;31738;50.188;8.524;2022-11-20T02:13:22;54.70;;;23.13;;
46006;SDS011;31738;50.188;8.524;2022-11-20T02:16:26;50.38;;;21.40;;
46006;SDS011;31738;50.188;8.524;2022-11-20T02:18:57;54.17;;;21.88;;
46006;SDS011;31738;50.188;8.524;2022-11-20T02:24:41;51.67;;;21.55;;
46006;SDS011;31738;50.188;8.524;2022-11-20T02:27:15;55.75;;;22.15;;
46006;SDS011;31738;50.188;8.524;2022-11-20T02:32:36;52.78;;;22.00;;
46006;SDS011;31738;50.188;8.524;2022-11-20T02:37:59;52.60;;;22.95;;
46006;SDS011;31738;50.188;8.524;2022-11-20T02:40:41;55.85;;;22.77;;
46006;SDS011;31738;50.188;8.524;2022-11-20T02:43:32;56.88;;;23.25;;
46006;SDS011;31738;50.188;8.524;2022-11-20T02:46:01;53.33;;;23.35;;
46006;SDS011;31738;50.188;8.524;2022-11-20T02:48:26;57.45;;;23.25;;
46006;SDS011;31738;50.188;8.524;2022-11-20T02:50:55;54.95;;;23.10;;
46006;SDS011;31738;50.188;8.524;2022-11-20T02:53:45;56.25;;;22.65;;
46006;SDS011;31738;50.188;8.524;2022-11-20T02:56:14;57.47;;;23.33;;
46006;SDS011;31738;50.188;8.524;2022-11-20T02:59:06;56.28;;;22.85;;
46006;SDS011;31738;50.188;8.524;2022-11-20T03:02:05;59.97;;;22.95;;
46006;SDS011;31738;50.188;8.524;2022-11-20T03:04:40;54.75;;;22.60;;
46006;SDS011;31738;50.188;8.524;2022-11-20T03:07:34;56.42;;;22.40;;
46006;SDS011;31738;50.188;8.524;2022-11-20T03:10:13;59.58;;;22.50;;
46006;SDS011;31738;50.188;8.524;2022-11-20T03:13:17;57.65;;;22.80;;
46006;SDS011;31738;50.188;8.524;2022-11-20T03:19:19;59.55;;;23.33;;
46006;SDS011;31738;50.188;8.524;2022-11-20T03:27:14;57.30;;;22.63;;
46006;SDS011;31738;50.188;8.524;2022-11-20T03:30:35;52.85;;;21.67;;
46006;SDS011;31738;50.188;8.524;2022-11-20T03:36:20;55.75;;;22.80;;
46006;SDS011;31738;50.188;8.524;2022-11-20T03:38:58;59.42;;;23.90;;
46006;SDS011;31738;50.188;8.524;2022-11-20T03:41:37;57.13;;;22.45;;
46006;SDS011;31738;50.188;8.524;2022-11-20T03:44:06;58.75;;;23.17;;
46006;SDS011;31738;50.188;8.524;2022-11-20T03:46:46;58.10;;;22.73;;
46006;SDS011;31738;50.188;8.524;2022-11-20T03:49:19;56.97;;;21.98;;
46006;SDS011;31738;50.188;8.524;2022-11-20T03:51:54;56.92;;;22.63;;
46006;SDS011;31738;50.188;8.524;2022-11-20T03:55:04;52.20;;;21.42;;
46006;SDS011;31738;50.188;8.524;2022-11-20T03:57:47;57.05;;;22.42;;
46006;SDS011;31738;50.188;8.524;2022-11-20T04:00:18;57.03;;;22.38;;
46006;SDS011;31738;50.188;8.524;2022-11-20T04:02:50;55.20;;;22.40;;
46006;SDS011;31738;50.188;8.524;2022-11-20T04:05:43;52.97;;;21.30;;
46006;SDS011;31738;50.188;8.524;2022-11-20T04:09:05;56.92;;;22.17;;
46006;SDS011;31738;50.188;8.524;2022-11-20T04:11:36;55.05;;;23.33;;
46006;SDS011;31738;50.188;8.524;2022-11-20T04:14:38;54.50;;;22.58;;
46006;SDS011;31738;50.188;8.524;2022-11-20T04:17:20;57.45;;;22.55;;
46006;SDS011;31738;50.188;8.524;2022-11-20T04:19:45;58.35;;;23.08;;
46006;SDS011;31738;50.188;8.524;2022-11-20T04:22:11;54.00;;;21.60;;
46006;SDS011;31738;50.188;8.524;2022-11-20T04:24:43;57.47;;;22.35;;
46006;SDS011;31738;50.188;8.524;2022-11-20T04:27:08;57.28;;;21.60;;
46006;SDS011;31738;50.188;8.524;2022-11-20T04:29:34;57.53;;;23.08;;
46006;SDS011;31738;50.188;8.524;2022-11-20T04:32:00;60.33;;;22.92;;
46006;SDS011;31738;50.188;8.524;2022-11-20T04:34:33;55.72;;;21.73;;
46006;SDS011;31738;50.188;8.524;2022-11-20T04:36:59;56.50;;;22.13;;
46006;SDS011;31738;50.188;8.524;2022-11-20T04:39:25;57.33;;;23.60;;
46006;SDS011;31738;50.188;8.524;2022-11-20T04:41:50;58.13;;;23.33;;
46006;SDS011;31738;50.188;8.524;2022-11-20T04:44:41;58.40;;;22.73;;
46006;SDS011;31738;50.188;8.524;2022-11-20T04:47:10;65.65;;;25.33;;
46006;SDS011;31738;50.188;8.524;2022-11-20T04:49:44;63.88;;;24.88;;
46006;SDS011;31738;50.188;8.524;2022-11-20T04:52:15;58.55;;;23.48;;
46006;SDS011;31738;50.188;8.524;2022-11-20T04:54:49;60.95;;;24.45;;
46006;SDS011;31738;50.188;8.524;2022-11-20T05:01:13;62.53;;;24.48;;
46006;SDS011;31738;50.188;8.524;2022-11-20T05:04:17;63.78;;;24.75;;
46006;SDS011;31738;50.188;8.524;2022-11-20T05:06:47;62.83;;;24.38;;
46006;SDS011;31738;50.188;8.524;2022-11-20T05:10:02;69.47;;;25.40;;
46006;SDS011;31738;50.188;8.524;2022-11-20T05:12:29;65.28;;;26.23;;
46006;SDS011;31738;50.188;8.524;2022-11-20T05:14:55;64.68;;;25.08;;
46006;SDS011;31738;50.188;8.524;2022-11-20T05:17:23;72.20;;;26.60;;
46006;SDS011;31738;50.188;8.524;2022-11-20T05:19:53;71.25;;;25.83;;
46006;SDS011;31738;50.188;8.524;2022-11-20T05:22:22;70.28;;;26.90;;
46006;SDS011;31738;50.188;8.524;2022-11-20T05:24:48;67.07;;;25.70;;
46006;SDS011;31738;50.188;8.524;2022-11-20T05:27:18;64.32;;;27.02;;
46006;SDS011;31738;50.188;8.524;2022-11-20T05:29:50;69.40;;;26.15;;
46006;SDS011;31738;50.188;8.524;2022-11-20T05:32:36;62.38;;;25.85;;
46006;SDS011;31738;50.188;8.524;2022-11-20T05:35:02;67.57;;;26.13;;
46006;SDS011;31738;50.188;8.524;2022-11-20T05:37:31;64.05;;;25.05;;
46006;SDS011;31738;50.188;8.524;2022-11-20T05:39:59;66.53;;;25.33;;
46006;SDS011;31738;50.188;8.524;2022-11-20T05:42:31;73.60;;;26.08;;
46006;SDS011;31738;50.188;8.524;2022-11-20T05:45:03;66.90;;;25.35;;
46006;SDS011;31738;50.188;8.524;2022-11-20T05:47:37;62.63;;;24.30;;
46006;SDS011;31738;50.188;8.524;2022-11-20T05:50:05;62.80;;;25.65;;
46006;SDS011;31738;50.188;8.524;2022-11-20T05:52:31;72.32;;;26.70;;
46006;SDS011;31738;50.188;8.524;2022-11-20T05:54:57;68.20;;;25.13;;
46006;SDS011;31738;50.188;8.524;2022-11-20T05:57:23;61.38;;;24.45;;
46006;SDS011;31738;50.188;8.524;2022-11-20T05:59:49;66.88;;;24.73;;
46006;SDS011;31738;50.188;8.524;2022-11-20T06:02:17;70.45;;;25.77;;
46006;SDS011;31738;50.188;8.524;2022-11-20T06:04:52;68.63;;;25.17;;
46006;SDS011;31738;50.188;8.524;2022-11-20T06:07:18;74.60;;;27.15;;
46006;SDS011;31738;50.188;8.524;2022-11-20T06:09:44;66.22;;;25.90;;
46006;SDS011;31738;50.188;8.524;2022-11-20T06:12:30;73.00;;;25.33;;
46006;SDS011;31738;50.188;8.524;2022-11-20T06:15:23;75.90;;;26.83;;
46006;SDS011;31738;50.188;8.524;2022-11-20T06:17:56;74.47;;;25.98;;
46006;SDS011;31738;50.188;8.524;2022-11-20T06:20:34;82.72;;;27.40;;
46006;SDS011;31738;50.188;8.524;2022-11-20T06:23:18;81.20;;;26.77;;
46006;SDS011;31738;50.188;8.524;2022-11-20T06:25:47;75.60;;;25.48;;
46006;SDS011;31738;50.188;8.524;2022-11-20T06:28:34;74.20;;;25.65;;
46006;SDS011;31738;50.188;8.524;2022-11-20T06:34:11;81.18;;;27.15;;
46006;SDS011;31738;50.188;8.524;2022-11-20T06:44:43;88.25;;;28.08;;
46006;SDS011;31738;50.188;8.524;2022-11-20T06:47:16;105.20;;;28.98;;
46006;SDS011;31738;50.188;8.524;2022-11-20T06:49:41;105.05;;;29.98;;
46006;SDS011;31738;50.188;8.524;2022-11-20T06:52:07;104.57;;;30.70;;
46006;SDS011;31738;50.188;8.524;2022-11-20T06:54:32;109.90;;;31.52;;
46006;SDS011;31738;50.188;8.524;2022-11-20T06:56:58;100.72;;;29.92;;
46006;SDS011;31738;50.188;8.524;2022-11-20T06:59:23;110.90;;;31.05;;
46006;SDS011;31738;50.188;8.524;2022-11-20T07:01:49;106.28;;;29.80;;
46006;SDS011;31738;50.188;8.524;2022-11-20T07:04:14;97.25;;;28.90;;
46006;SDS011;31738;50.188;8.524;2022-11-20T07:06:40;92.70;;;27.90;;
46006;SDS011;31738;50.188;8.524;2022-11-20T07:09:05;95.45;;;28.67;;
46006;SDS011;31738;50.188;8.524;2022-11-20T07:11:31;97.00;;;27.77;;
46006;SDS011;31738;50.188;8.524;2022-11-20T07:13:56;87.20;;;25.85;;
46006;SDS011;31738;50.188;8.524;2022-11-20T07:16:22;87.70;;;27.10;;
46006;SDS011;31738;50.188;8.524;2022-11-20T07:18:47;88.13;;;25.48;;
46006;SDS011;31738;50.188;8.524;2022-11-20T07:21:13;101.78;;;27.67;;
46006;SDS011;31738;50.188;8.524;2022-11-20T07:23:39;82.22;;;24.60;;
46006;SDS011;31738;50.188;8.524;2022-11-20T07:26:05;90.40;;;25.75;;
46006;SDS011;31738;50.188;8.524;2022-11-20T07:28:31;84.18;;;26.15;;
46006;SDS011;31738;50.188;8.524;2022-11-20T07:30:57;93.22;;;27.83;;
46006;SDS011;31738;50.188;8.524;2022-11-20T07:33:23;188.98;;;30.15;;
46006;SDS011;31738;50.188;8.524;2022-11-20T07:35:48;162.30;;;30.17;;
46006;SDS011;31738;50.188;8.524;2022-11-20T07:38:14;126.25;;;27.23;;
46006;SDS011;31738;50.188;8.524;2022-11-20T07:40:40;106.15;;;26.08;;
46006;SDS011;31738;50.188;8.524;2022-11-20T07:43:05;134.90;;;27.55;;
46006;SDS011;31738;50.188;8.524;2022-11-20T07:45:31;151.18;;;25.70;;
46006;SDS011;31738;50.188;8.524;2022-11-20T07:47:56;104.50;;;25.75;;
46006;SDS011;31738;50.188;8.524;2022-11-20T07:50:22;138.13;;;27.15;;
46006;SDS011;31738;50.188;8.524;2022-11-20T07:52:47;81.75;;;23.98;;
46006;SDS011;31738;50.188;8.524;2022-11-20T07:55:13;81.93;;;24.25;;
46006;SDS011;31738;50.188;8.524;2022-11-20T07:57:39;86.65;;;25.27;;
46006;SDS011;31738;50.188;8.524;2022-11-20T08:00:05;88.72;;;23.77;;
46006;SDS011;31738;50.188;8.524;2022-11-20T08:02:41;86.80;;;24.25;;
46006;SDS011;31738;50.188;8.524;2022-11-20T08:05:07;85.88;;;24.42;;
46006;SDS011;31738;50.188;8.524;2022-11-20T08:07:37;86.47;;;23.70;;
46006;SDS011;31738;50.188;8.524;2022-11-20T08:10:04;78.82;;;23.85;;
46006;SDS011;31738;50.188;8.524;2022-11-20T08:12:30;83.68;;;24.60;;
46006;SDS011;31738;50.188;8.524;2022-11-20T08:15:14;92.75;;;23.83;;
46006;SDS011;31738;50.188;8.524;2022-11-20T08:17:40;89.55;;;24.63;;
46006;SDS011;31738;50.188;8.524;2022-11-20T08:20:06;80.93;;;23.85;;
46006;SDS011;31738;50.188;8.524;2022-11-20T08:22:31;84.65;;;24.45;;
46006;SDS011;31738;50.188;8.524;2022-11-20T08:24:57;86.22;;;23.20;;
46006;SDS011;31738;50.188;8.524;2022-11-20T08:27:23;83.78;;;23.23;;
46006;SDS011;31738;50.188;8.524;2022-11-20T08:29:49;82.18;;;24.17;;
46006;SDS011;31738;50.188;8.524;2022-11-20T08:32:26;89.78;;;24.52;;
46006;SDS011;31738;50.188;8.524;2022-11-20T08:34:52;83.00;;;22.98;;
46006;SDS011;31738;50.188;8.524;2022-11-20T08:37:21;83.30;;;24.42;;
46006;SDS011;31738;50.188;8.524;2022-11-20T08:39:51;79.15;;;23.88;;
46006;SDS011;31738;50.188;8.524;2022-11-20T08:42:25;81.93;;;24.42;;
46006;SDS011;31738;50.188;8.524;2022-11-20T08:44:53;70.50;;;23.70;;
46006;SDS011;31738;50.188;8.524;2022-11-20T08:47:26;87.30;;;24.67;;
46006;SDS011;31738;50.188;8.524;2022-11-20T08:50:06;76.32;;;24.05;;
46006;SDS011;31738;50.188;8.524;2022-11-20T08:52:43;84.65;;;23.05;;
46006;SDS011;31738;50.188;8.524;2022-11-20T08:55:09;75.90;;;22.20;;
46006;SDS011;31738;50.188;8.524;2022-11-20T08:57:38;73.68;;;23.17;;
46006;SDS011;31738;50.188;8.524;2022-11-20T09:00:15;85.60;;;22.20;;
46006;SDS011;31738;50.188;8.524;2022-11-20T09:02:49;47.03;;;16.63;;
46006;SDS011;31738;50.188;8.524;2022-11-20T09:05:14;65.43;;;19.90;;
46006;SDS011;31738;50.188;8.524;2022-11-20T09:08:03;67.95;;;21.05;;
46006;SDS011;31738;50.188;8.524;2022-11-20T09:10:32;102.35;;;21.33;;
46006;SDS011;31738;50.188;8.524;2022-11-20T09:12:59;142.00;;;23.30;;
46006;SDS011;31738;50.188;8.524;2022-11-20T09:15:29;69.63;;;21.35;;
46006;SDS011;31738;50.188;8.524;2022-11-20T09:17:59;67.18;;;22.13;;
46006;SDS011;31738;50.188;8.524;2022-11-20T09:20:28;67.05;;;22.15;;
46006;SDS011;31738;50.188;8.524;2022-11-20T09:23:00;78.72;;;22.27;;
46006;SDS011;31738;50.188;8.524;2022-11-20T09:25:26;64.93;;;20.42;;
46006;SDS011;31738;50.188;8.524;2022-11-20T09:27:58;63.60;;;21.77;;
46006;SDS011;31738;50.188;8.524;2022-11-20T09:30:26;72.10;;;22.05;;
46006;SDS011;31738;50.188;8.524;2022-11-20T09:32:54;65.80;;;22.17;;
46006;SDS011;31738;50.188;8.524;2022-11-20T09:35:25;64.97;;;21.90;;
46006;SDS011;31738;50.188;8.524;2022-11-20T09:37:54;74.65;;;23.05;;
46006;SDS011;31738;50.188;8.524;2022-11-20T09:40:26;64.22;;;21.25;;
46006;SDS011;31738;50.188;8.524;2022-11-20T09:48:44;85.93;;;23.90;;
46006;SDS011;31738;50.188;8.524;2022-11-20T09:51:24;78.70;;;24.70;;
46006;SDS011;31738;50.188;8.524;2022-11-20T09:56:42;67.18;;;22.23;;
46006;SDS011;31738;50.188;8.524;2022-11-20T10:05:10;80.93;;;24.90;;
46006;SDS011;31738;50.188;8.524;2022-11-20T10:07:53;82.95;;;25.73;;
46006;SDS011;31738;50.188;8.524;2022-11-20T10:10:32;79.70;;;24.17;;
46006;SDS011;31738;50.188;8.524;2022-11-20T10:16:00;79.85;;;24.27;;
46006;SDS011;31738;50.188;8.524;2022-11-20T10:18:43;81.38;;;24.27;;
46006;SDS011;31738;50.188;8.524;2022-11-20T10:24:05;63.42;;;22.17;;
46006;SDS011;31738;50.188;8.524;2022-11-20T10:29:18;56.88;;;20.48;;
46006;SDS011;31738;50.188;8.524;2022-11-20T10:31:54;59.95;;;19.58;;
46006;SDS011;31738;50.188;8.524;2022-11-20T10:34:42;53.88;;;18.83;;
46006;SDS011;31738;50.188;8.524;2022-11-20T10:37:19;58.70;;;22.52;;
46006;SDS011;31738;50.188;8.524;2022-11-20T10:42:47;63.60;;;23.13;;
46006;SDS011;31738;50.188;8.524;2022-11-20T10:47:52;79.30;;;24.58;;
46006;SDS011;31738;50.188;8.524;2022-11-20T10:50:21;75.05;;;23.58;;
46006;SDS011;31738;50.188;8.524;2022-11-20T10:55:42;73.47;;;23.42;;
46006;SDS011;31738;50.188;8.524;2022-11-20T11:01:16;77.88;;;25.20;;
46006;SDS011;31738;50.188;8.524;2022-11-20T11:03:44;70.38;;;23.23;;
46006;SDS011;31738;50.188;8.524;2022-11-20T11:08:58;65.20;;;21.52;;
46006;SDS011;31738;50.188;8.524;2022-11-20T11:11:30;71.05;;;23.38;;
46006;SDS011;31738;50.188;8.524;2022-11-20T11:14:13;67.65;;;23.23;;
46006;SDS011;31738;50.188;8.524;2022-11-20T11:16:53;64.53;;;22.65;;
46006;SDS011;31738;50.188;8.524;2022-11-20T11:19:21;66.53;;;22.02;;
46006;SDS011;31738;50.188;8.524;2022-11-20T11:21:47;57.38;;;20.95;;
46006;SDS011;31738;50.188;8.524;2022-11-20T11:24:25;63.95;;;22.15;;
46006;SDS011;31738;50.188;8.524;2022-11-20T11:27:02;66.70;;;22.85;;
46006;SDS011;31738;50.188;8.524;2022-11-20T11:29:35;63.65;;;20.63;;
46006;SDS011;31738;50.188;8.524;2022-11-20T11:32:07;62.65;;;21.70;;
46006;SDS011;31738;50.188;8.524;2022-11-20T11:34:40;65.25;;;22.90;;
46006;SDS011;31738;50.188;8.524;2022-11-20T11:37:11;71.22;;;23.83;;
46006;SDS011;31738;50.188;8.524;2022-11-20T11:39:42;64.95;;;22.92;;
46006;SDS011;31738;50.188;8.524;2022-11-20T11:42:11;78.25;;;25.13;;
46006;SDS011;31738;50.188;8.524;2022-11-20T11:44:43;75.43;;;25.85;;
46006;SDS011;31738;50.188;8.524;2022-11-20T11:47:30;78.03;;;25.55;;
46006;SDS011;31738;50.188;8.524;2022-11-20T11:50:47;73.90;;;25.95;;
46006;SDS011;31738;50.188;8.524;2022-11-20T11:52:56;79.80;;;26.02;;
46006;SDS011;31738;50.188;8.524;2022-11-20T11:55:51;83.38;;;27.27;;
46006;SDS011;31738;50.188;8.524;2022-11-20T11:58:40;86.88;;;27.25;;
46006;SDS011;31738;50.188;8.524;2022-11-20T12:06:44;94.32;;;30.10;;
46006;SDS011;31738;50.188;8.524;2022-11-20T12:09:16;87.20;;;28.08;;
46006;SDS011;31738;50.188;8.524;2022-11-20T12:11:48;88.15;;;29.83;;
46006;SDS011;31738;50.188;8.524;2022-11-20T12:14:41;76.15;;;26.52;;
46006;SDS011;31738;50.188;8.524;2022-11-20T12:17:13;82.45;;;26.27;;
46006;SDS011;31738;50.188;8.524;2022-11-20T12:19:39;90.75;;;28.80;;
46006;SDS011;31738;50.188;8.524;2022-11-20T12:22:25;86.32;;;29.88;;
46006;SDS011;31738;50.188;8.524;2022-11-20T12:30:31;88.63;;;30.30;;
46006;SDS011;31738;50.188;8.524;2022-11-20T12:44:40;88.25;;;29.67;;
46006;SDS011;31738;50.188;8.524;2022-11-20T12:47:50;94.80;;;30.17;;
46006;SDS011;31738;50.188;8.524;2022-11-20T12:50:41;100.38;;;31.70;;
46006;SDS011;31738;50.188;8.524;2022-11-20T13:07:53;90.43;;;30.08;;
46006;SDS011;31738;50.188;8.524;2022-11-20T13:10:33;99.32;;;30.70;;
46006;SDS011;31738;50.188;8.524;2022-11-20T13:15:58;93.13;;;31.23;;
46006;SDS011;31738;50.188;8.524;2022-11-20T13:18:40;88.93;;;29.20;;
46006;SDS011;31738;50.188;8.524;2022-11-20T13:21:18;87.68;;;29.60;;
46006;SDS011;31738;50.188;8.524;2022-11-20T13:23:46;93.45;;;31.15;;
46006;SDS011;31738;50.188;8.524;2022-11-20T13:26:16;88.32;;;29.95;;
46006;SDS011;31738;50.188;8.524;2022-11-20T13:29:01;89.13;;;28.85;;
46006;SDS011;31738;50.188;8.524;2022-11-20T13:31:40;77.93;;;28.23;;
46006;SDS011;31738;50.188;8.524;2022-11-20T13:34:11;80.30;;;27.77;;
46006;SDS011;31738;50.188;8.524;2022-11-20T13:36:50;86.03;;;28.38;;
46006;SDS011;31738;50.188;8.524;2022-11-20T13:39:29;85.97;;;28.15;;
46006;SDS011;31738;50.188;8.524;2022-11-20T13:44:37;81.15;;;29.35;;
46006;SDS011;31738;50.188;8.524;2022-11-20T13:47:29;86.35;;;28.63;;
46006;SDS011;31738;50.188;8.524;2022-11-20T13:49:55;82.07;;;29.73;;
46006;SDS011;31738;50.188;8.524;2022-11-20T13:53:08;82.72;;;29.73;;
46006;SDS011;31738;50.188;8.524;2022-11-20T13:58:19;88.20;;;30.23;;
46006;SDS011;31738;50.188;8.524;2022-11-20T14:03:42;80.13;;;29.38;;
46006;SDS011;31738;50.188;8.524;2022-11-20T14:06:29;92.20;;;30.83;;
46006;SDS011;31738;50.188;8.524;2022-11-20T14:08:57;86.60;;;30.92;;
46006;SDS011;31738;50.188;8.524;2022-11-20T14:11:30;90.53;;;31.48;;
46006;SDS011;31738;50.188;8.524;2022-11-20T14:14:00;93.95;;;33.20;;
46006;SDS011;31738;50.188;8.524;2022-11-20T14:16:31;89.85;;;32.70;;
46006;SDS011;31738;50.188;8.524;2022-11-20T14:19:22;96.55;;;32.63;;
46006;SDS011;31738;50.188;8.524;2022-11-20T14:21:52;100.43;;;33.63;;
46006;SDS011;31738;50.188;8.524;2022-11-20T14:24:20;97.38;;;31.67;;
46006;SDS011;31738;50.188;8.524;2022-11-20T14:26:48;95.20;;;33.42;;
46006;SDS011;31738;50.188;8.524;2022-11-20T14:29:17;93.13;;;32.63;;
46006;SDS011;31738;50.188;8.524;2022-11-20T14:31:45;87.63;;;31.42;;
46006;SDS011;31738;50.188;8.524;2022-11-20T14:34:16;97.25;;;33.47;;
46006;SDS011;31738;50.188;8.524;2022-11-20T14:36:44;99.07;;;33.35;;
46006;SDS011;31738;50.188;8.524;2022-11-20T14:39:23;101.25;;;33.70;;
46006;SDS011;31738;50.188;8.524;2022-11-20T14:41:54;92.97;;;31.37;;
46006;SDS011;31738;50.188;8.524;2022-11-20T14:44:21;101.30;;;32.55;;
46006;SDS011;31738;50.188;8.524;2022-11-20T14:46:51;107.45;;;33.78;;
46006;SDS011;31738;50.188;8.524;2022-11-20T14:49:17;95.30;;;33.80;;
46006;SDS011;31738;50.188;8.524;2022-11-20T14:51:44;103.68;;;34.17;;
46006;SDS011;31738;50.188;8.524;2022-11-20T14:54:12;101.97;;;33.25;;
46006;SDS011;31738;50.188;8.524;2022-11-20T14:56:40;100.85;;;33.33;;
46006;SDS011;31738;50.188;8.524;2022-11-20T14:59:06;108.20;;;33.97;;
46006;SDS011;31738;50.188;8.524;2022-11-20T15:01:34;101.78;;;35.13;;
46006;SDS011;31738;50.188;8.524;2022-11-20T15:04:02;111.25;;;36.25;;
46006;SDS011;31738;50.188;8.524;2022-11-20T15:06:31;103.55;;;34.33;;
46006;SDS011;31738;50.188;8.524;2022-11-20T15:08:57;108.82;;;35.05;;
46006;SDS011;31738;50.188;8.524;2022-11-20T15:11:30;106.43;;;35.42;;
46006;SDS011;31738;50.188;8.524;2022-11-20T15:14:01;110.85;;;36.38;;
46006;SDS011;31738;50.188;8.524;2022-11-20T15:16:29;116.15;;;36.05;;
46006;SDS011;31738;50.188;8.524;2022-11-20T15:18:56;109.53;;;35.22;;
46006;SDS011;31738;50.188;8.524;2022-11-20T15:21:21;109.10;;;34.08;;
46006;SDS011;31738;50.188;8.524;2022-11-20T15:23:47;112.03;;;36.17;;
46006;SDS011;31738;50.188;8.524;2022-11-20T15:26:15;102.10;;;33.95;;
46006;SDS011;31738;50.188;8.524;2022-11-20T15:28:55;111.75;;;34.95;;
46006;SDS011;31738;50.188;8.524;2022-11-20T15:31:21;111.45;;;36.25;;
46006;SDS011;31738;50.188;8.524;2022-11-20T15:33:48;108.30;;;35.92;;
46006;SDS011;31738;50.188;8.524;2022-11-20T15:36:14;106.07;;;33.83;;
46006;SDS011;31738;50.188;8.524;2022-11-20T15:38:40;109.82;;;34.85;;
46006;SDS011;31738;50.188;8.524;2022-11-20T15:41:06;115.63;;;35.80;;
46006;SDS011;31738;50.188;8.524;2022-11-20T15:43:32;109.50;;;35.10;;
46006;SDS011;31738;50.188;8.524;2022-11-20T15:46:05;107.20;;;35.00;;
46006;SDS011;31738;50.188;8.524;2022-11-20T15:48:49;106.55;;;34.45;;
46006;SDS011;31738;50.188;8.524;2022-11-20T15:51:35;119.68;;;35.47;;
46006;SDS011;31738;50.188;8.524;2022-11-20T15:54:15;113.72;;;34.25;;
46006;SDS011;31738;50.188;8.524;2022-11-20T15:56:49;106.78;;;33.53;;
46006;SDS011;31738;50.188;8.524;2022-11-20T15:59:17;112.40;;;33.08;;
46006;SDS011;31738;50.188;8.524;2022-11-20T16:01:43;103.18;;;31.27;;
46006;SDS011;31738;50.188;8.524;2022-11-20T16:04:12;106.20;;;34.65;;
46006;SDS011;31738;50.188;8.524;2022-11-20T16:06:39;106.70;;;34.35;;
46006;SDS011;31738;50.188;8.524;2022-11-20T16:09:05;109.20;;;32.92;;
46006;SDS011;31738;50.188;8.524;2022-11-20T16:11:31;104.05;;;32.67;;
46006;SDS011;31738;50.188;8.524;2022-11-20T16:13:57;106.85;;;32.85;;
46006;SDS011;31738;50.188;8.524;2022-11-20T16:16:41;112.13;;;33.80;;
46006;SDS011;31738;50.188;8.524;2022-11-20T16:19:11;105.90;;;32.60;;
46006;SDS011;31738;50.188;8.524;2022-11-20T16:21:38;97.38;;;31.65;;
46006;SDS011;31738;50.188;8.524;2022-11-20T16:24:07;110.43;;;32.65;;
46006;SDS011;31738;50.188;8.524;2022-11-20T16:26:34;104.45;;;31.50;;
46006;SDS011;31738;50.188;8.524;2022-11-20T16:29:01;104.85;;;32.55;;
46006;SDS011;31738;50.188;8.524;2022-11-20T16:31:29;112.85;;;32.40;;
46006;SDS011;31738;50.188;8.524;2022-11-20T16:33:55;108.00;;;31.95;;
46006;SDS011;31738;50.188;8.524;2022-11-20T16:36:23;103.07;;;30.77;;
46006;SDS011;31738;50.188;8.524;2022-11-20T16:38:54;110.90;;;30.42;;
46006;SDS011;31738;50.188;8.524;2022-11-20T16:41:21;103.15;;;29.83;;
46006;SDS011;31738;50.188;8.524;2022-11-20T16:43:48;103.88;;;33.33;;
46006;SDS011;31738;50.188;8.524;2022-11-20T16:46:22;104.25;;;29.95;;
46006;SDS011;31738;50.188;8.524;2022-11-20T16:48:56;107.82;;;30.40;;
46006;SDS011;31738;50.188;8.524;2022-11-20T16:51:23;116.95;;;32.10;;
46006;SDS011;31738;50.188;8.524;2022-11-20T16:53:50;110.80;;;32.97;;
46006;SDS011;31738;50.188;8.524;2022-11-20T16:56:19;106.68;;;31.80;;
46006;SDS011;31738;50.188;8.524;2022-11-20T16:58:47;101.38;;;31.00;;